TULLOCH (TUL)

Elevation: 515' · STANISLAUS R basin · Operator: US Bureau of Reclamation

Provisional data, subject to change.
Query executed Monday at 13:52:50   clock

Select a sensor type for a plot of data.
Note: Reservoir Flows are daily averages.

Earlier

Date RES ELE    STORAGE    RES CHG    TOC STO    ABV TOC    OUTFLOW    INFLOW    EVAP    RIV REL    SPILL    DIS PWR   
 FEET   AF   AF   AF   AF   CFS   CFS   CFS   CFS   CFS   CFS  
08/02/2014 508.29 64846 -689 67000 -2154 1772 1445 20 0 0 1772
08/03/2014 507.85 64307 -539 67000 -2693 1807 1555 20 0 0 1807
08/04/2014 509.14 65895 1588 67000 -1105 1789 2602 12 0 0 1789
08/05/2014 508.93 65634 -261 67000 -1366 1681 1561 12 0 0 1681
08/06/2014 508.82 65498 -136 67000 -1502 1621 1566 14 0 0 1621
08/07/2014 508.62 65252 -246 67000 -1748 1626 1517 15 0 0 1626
08/08/2014 508.65 65289 37 67000 -1711 1586 1619 14 0 0 1586
08/09/2014 508.48 65080 -209 67000 -1920 1561 1471 15 0 0 1561
08/10/2014 509.29 66082 1002 67000 -918 1590 2112 17 0 0 1590
08/11/2014 509.13 65882 -200 67000 -1118 1559 1472 14 0 0 1559
08/12/2014 508.87 65560 -322 67000 -1440 1552 1406 16 0 0 1552
08/13/2014 508.79 65461 -99 67000 -1539 1494 1461 17 0 0 1494
08/14/2014 508.71 65363 -98 67000 -1637 1533 1499 15 0 0 1533
08/15/2014 508.77 65437 74 67000 -1563 1576 1631 18 0 0 1576
08/16/2014 508.87 65560 123 67000 -1440 1583 1662 17 0 0 1583
08/17/2014 508.77 65437 -123 67000 -1563 1601 1555 16 0 0 1601
08/18/2014 509.00 65720 283 67000 -1280 1592 1753 18 0 0 1592
08/19/2014 508.48 65080 -640 67000 -1920 1568 1262 17 0 0 1568
08/20/2014 508.68 65326 246 67000 -1674 1418 1556 14 0 0 1418
08/21/2014 509.07 65807 481 67000 -1193 1314 1571 14 0 0 1314
08/22/2014 509.16 65920 113 67000 -1080 1150 1223 16 0 0 1150
08/23/2014 509.30 66094 174 67000 -906 1117 1219 14 0 0 1117
08/24/2014 508.84 65523 -571 67000 -1477 1073 801 16 0 0 1073
08/25/2014 508.97 65683 160 67000 -1317 1068 1164 15 0 0 1068
08/26/2014 509.16 65920 237 67000 -1080 1138 1271 14 0 0 1138
08/27/2014 508.71 65363 -557 67000 -1637 1275 1006 12 0 0 1275
08/28/2014 508.78 65449 86 67000 -1551 1373 1431 15 78 0 1295
08/29/2014 508.47 65068 -381 67000 -1932 1389 1214 17 33 0 1356
08/30/2014 508.28 64834 -234 67000 -2166 1426 1321 13 0 0 1426
08/31/2014 508.01 64501 -333 67000 -2499 1428 1276 16 0 0 1428
09/01/2014 -- -- -- -- -- -- -- -- -- -- --

Later | Latest

Warning! This data is preliminary and subject to revision.

Download Data Now Download Data Now | Show TUL Map | Plot TUL Data | 1 Month TUL Data | Real-Time TUL Data | TUL Info